Time;durP1;ratioP1;P1;durP2;ratioP2;P2;SDS_P1;SDS_P2;PMS_P1;PMS_P2;Temp;Humidity;BMP_temperature;BMP_pressure;BME280_temperature;BME280_humidity;BME280_pressure;Samples;Min_cycle;Max_cycle;Signal;HPM_P1;HPM_P2
2023/10/29 00:04:58;;;;;;;2.65;1.67;;;;;;;13.52;78.39;98762.88;10315066;28;20062;-71
2023/10/29 00:09:59;;;;;;;4.85;1.67;;;;;;;13.46;78.61;98765.47;10307581;28;20065;-71
2023/10/29 00:15:01;;;;;;;8.73;1.70;;;;;;;13.52;78.53;98735.91;10312087;28;20524;-70
2023/10/29 00:20:06;;;;;;;5.38;1.33;;;;;;;13.56;78.40;98731.66;10312359;28;20141;-71
2023/10/29 00:25:08;;;;;;;4.57;1.40;;;;;;;13.60;78.19;98728.25;10315689;28;20111;-71
2023/10/29 00:30:09;;;;;;;5.28;1.30;;;;;;;13.62;78.09;98733.41;10318081;28;20050;-72
2023/10/29 00:35:11;;;;;;;6.25;1.20;;;;;;;13.59;78.36;98723.09;10317474;28;20050;-73
2023/10/29 00:40:12;;;;;;;5.50;1.15;;;;;;;13.59;78.41;98728.50;10330788;28;20141;-70
2023/10/29 00:45:14;;;;;;;8.70;1.27;;;;;;;13.65;78.25;98704.06;10318183;28;20489;-71
2023/10/29 00:50:15;;;;;;;5.43;1.25;;;;;;;13.70;78.27;98711.44;10314107;28;20053;-71
2023/10/29 00:55:18;;;;;;;8.15;1.00;;;;;;;13.59;78.35;98721.22;10313943;28;20061;-71
2023/10/29 01:00:21;;;;;;;9.13;1.55;;;;;;;13.61;78.30;98713.72;10316242;28;20054;-70
2023/10/29 01:05:22;;;;;;;3.45;1.10;;;;;;;13.68;78.53;98729.78;10312263;28;20050;-71
2023/10/29 01:10:24;;;;;;;9.30;1.20;;;;;;;13.64;78.49;98751.03;10313740;28;20038;-70
2023/10/29 01:15:26;;;;;;;2.38;1.20;;;;;;;13.65;78.52;98743.75;10328974;28;20087;-70
2023/10/29 01:20:27;;;;;;;4.55;1.10;;;;;;;13.73;78.31;98727.19;10325291;28;20424;-70
2023/10/29 01:25:29;;;;;;;5.30;1.30;;;;;;;13.76;78.30;98721.31;10322469;28;21462;-70
2023/10/29 01:30:30;;;;;;;4.90;1.70;;;;;;;13.77;78.14;98733.75;10324629;28;20046;-70
2023/10/29 01:35:32;;;;;;;6.05;1.10;;;;;;;13.69;78.43;98726.84;10336569;28;20042;-70
2023/10/29 01:40:33;;;;;;;6.97;1.25;;;;;;;13.71;78.53;98715.81;10322649;28;20077;-70
2023/10/29 01:45:36;;;;;;;4.78;1.20;;;;;;;13.74;78.21;98709.91;10322886;28;20073;-70
2023/10/29 01:50:38;;;;;;;2.88;1.00;;;;;;;13.75;78.13;98706.19;10320310;28;20042;-71
2023/10/29 01:55:39;;;;;;;6.78;1.30;;;;;;;13.78;78.12;98653.56;10320154;28;20042;-71
2023/10/29 02:00:41;;;;;;;2.08;1.10;;;;;;;13.77;78.15;98643.84;10318255;28;20042;-70
2023/10/29 02:05:42;;;;;;;3.03;1.35;;;;;;;13.72;78.28;98652.63;10315922;28;20062;-72
2023/10/29 02:10:44;;;;;;;10.32;1.45;;;;;;;13.69;78.29;98648.53;10331469;28;20042;-70
2023/10/29 02:15:46;;;;;;;3.55;1.10;;;;;;;13.63;78.45;98663.00;10317808;28;20043;-71
2023/10/29 02:20:47;;;;;;;4.93;1.20;;;;;;;13.65;78.44;98622.25;10333396;28;20076;-70
2023/10/29 02:25:49;;;;;;;1.83;0.80;;;;;;;13.70;78.12;98598.03;10318408;28;20062;-70
2023/10/29 02:30:50;;;;;;;3.72;1.40;;;;;;;13.72;78.06;98598.63;10318438;28;20054;-69
2023/10/29 02:35:52;;;;;;;5.40;1.10;;;;;;;13.65;78.15;98623.06;10317262;28;20129;-69
2023/10/29 02:40:53;;;;;;;4.38;0.75;;;;;;;13.36;78.96;98683.44;10317687;28;20074;-69
2023/10/29 02:45:54;;;;;;;5.63;1.38;;;;;;;13.08;79.79;98691.13;10316640;28;20035;-68
2023/10/29 02:50:56;;;;;;;7.35;1.65;;;;;;;12.87;80.55;98680.91;10317396;28;20054;-69
2023/10/29 02:56:01;;;;;;;6.25;2.08;;;;;;;12.89;80.61;98668.84;10316106;28;20046;-69
2023/10/29 03:01:07;;;;;;;7.50;1.77;;;;;;;13.07;79.93;98630.16;10316876;28;20088;-68
2023/10/29 03:06:09;;;;;;;3.83;1.88;;;;;;;13.30;79.08;98642.03;10315602;28;20082;-69
2023/10/29 03:11:12;;;;;;;5.53;2.05;;;;;;;13.32;79.15;98637.22;10313298;28;20522;-69
2023/10/29 03:16:14;;;;;;;4.70;2.25;;;;;;;13.42;78.90;98650.09;10316069;28;20042;-69
2023/10/29 03:21:19;;;;;;;4.18;1.80;;;;;;;13.47;78.62;98636.72;10290103;28;20146;-69
2023/10/29 03:26:20;;;;;;;8.43;2.08;;;;;;;13.53;78.45;98640.38;10313668;28;20050;-69
2023/10/29 03:31:23;;;;;;;4.40;1.75;;;;;;;13.52;78.47;98644.91;10315702;28;20082;-69
2023/10/29 03:36:25;;;;;;;6.47;1.95;;;;;;;13.53;78.53;98649.28;10312899;28;20043;-71
2023/10/29 03:41:26;;;;;;;4.28;1.85;;;;;;;13.51;78.51;98648.69;10316591;28;20058;-70
2023/10/29 03:46:27;;;;;;;3.90;1.58;;;;;;;13.51;78.54;98637.91;10315240;28;20039;-70
2023/10/29 03:51:29;;;;;;;10.00;1.63;;;;;;;13.47;78.54;98650.22;10316603;28;20433;-70
2023/10/29 03:56:30;;;;;;;4.20;1.30;;;;;;;13.44;78.70;98646.09;10313889;28;20046;-70
2023/10/29 04:01:32;;;;;;;9.90;2.08;;;;;;;13.40;78.64;98636.84;10315412;28;20050;-70
2023/10/29 04:06:34;;;;;;;5.20;1.15;;;;;;;13.39;78.85;98628.97;10317867;28;20046;-70
2023/10/29 04:11:36;;;;;;;5.18;1.48;;;;;;;13.39;78.84;98621.72;10313417;28;20053;-69
2023/10/29 04:16:37;;;;;;;6.38;1.15;;;;;;;13.41;78.61;98630.41;10294231;28;20044;-69
2023/10/29 04:21:39;;;;;;;4.07;1.45;;;;;;;13.35;79.19;98636.75;10315724;28;20041;-70
2023/10/29 04:26:40;;;;;;;2.95;1.13;;;;;;;13.37;79.09;98644.59;10328935;28;20421;-70
2023/10/29 04:31:41;;;;;;;5.70;1.25;;;;;;;13.40;79.27;98642.25;10312301;28;20905;-70
2023/10/29 04:36:48;;;;;;;4.60;1.13;;;;;;;13.45;79.19;98638.84;10312202;28;20172;-70
2023/10/29 04:41:49;;;;;;;4.00;0.80;;;;;;;13.41;79.50;98648.47;10313987;28;20054;-69
2023/10/29 04:46:51;;;;;;;2.90;1.15;;;;;;;13.42;79.63;98658.19;10310562;28;20117;-70
2023/10/29 04:51:52;;;;;;;7.32;0.95;;;;;;;13.41;79.73;98651.19;10314784;28;20049;-70
2023/10/29 04:56:54;;;;;;;2.83;0.70;;;;;;;13.37;79.91;98652.69;10312754;28;20053;-70
2023/10/29 05:01:55;;;;;;;4.82;0.80;;;;;;;13.38;79.76;98651.63;10313055;28;20101;-69
2023/10/29 05:06:57;;;;;;;3.13;0.80;;;;;;;13.27;79.98;98670.28;10316277;28;20046;-69
2023/10/29 05:11:58;;;;;;;6.03;0.85;;;;;;;13.26;79.98;98665.91;10313412;28;20050;-72
2023/10/29 05:17:01;;;;;;;3.35;0.63;;;;;;;13.23;80.20;98662.88;10317154;28;20066;-72
2023/10/29 05:22:03;;;;;;;4.15;0.65;;;;;;;13.03;80.87;98647.03;10314583;28;20466;-69
2023/10/29 05:27:05;;;;;;;1.77;0.70;;;;;;;13.06;80.77;98646.56;10313520;28;20571;-70
2023/10/29 05:32:06;;;;;;;3.15;1.00;;;;;;;13.05;80.69;98647.63;10312620;28;20038;-71
2023/10/29 05:37:07;;;;;;;3.17;0.55;;;;;;;13.01;80.76;98657.22;10312176;28;20043;-69
2023/10/29 05:42:10;;;;;;;5.13;0.57;;;;;;;13.05;80.53;98666.50;10314696;28;20058;-69
2023/10/29 05:47:11;;;;;;;4.15;1.08;;;;;;;12.95;81.15;98672.47;10327543;28;20042;-70
2023/10/29 05:52:13;;;;;;;1.65;0.60;;;;;;;12.97;81.00;98685.72;10313788;28;20046;-69
2023/10/29 05:57:16;;;;;;;1.10;0.63;;;;;;;12.98;81.12;98690.09;10313989;28;20058;-69
2023/10/29 06:02:17;;;;;;;2.58;0.77;;;;;;;12.97;81.11;98683.03;10312270;28;20054;-69
2023/10/29 06:07:19;;;;;;;5.35;0.80;;;;;;;12.96;81.15;98690.31;10320425;28;20038;-68
2023/10/29 06:12:20;;;;;;;2.08;0.60;;;;;;;12.90;81.50;98700.16;10317831;28;20046;-67
2023/10/29 06:17:22;;;;;;;3.80;1.20;;;;;;;12.91;81.55;98687.47;10319882;28;20046;-67
2023/10/29 06:22:27;;;;;;;1.38;0.60;;;;;;;12.92;81.42;98697.22;10317943;28;20065;-67
2023/10/29 06:27:29;;;;;;;2.05;0.63;;;;;;;12.94;81.46;98713.19;10319090;28;20839;-68
2023/10/29 06:32:30;;;;;;;3.08;0.60;;;;;;;12.98;81.67;98708.97;10317037;28;20054;-68
2023/10/29 06:37:32;;;;;;;1.77;0.47;;;;;;;13.05;81.58;98653.00;10314945;28;20057;-67
2023/10/29 06:42:33;;;;;;;2.20;0.70;;;;;;;13.14;81.21;98619.25;10316580;28;20338;-68
2023/10/29 06:47:35;;;;;;;1.55;0.80;;;;;;;13.24;80.78;98624.03;10314444;28;20046;-68
2023/10/29 06:52:36;;;;;;;0.95;0.60;;;;;;;13.22;81.19;98618.88;10333347;28;20153;-68
2023/10/29 06:57:38;;;;;;;1.40;0.47;;;;;;;13.21;81.68;98662.28;10318113;28;20050;-68
2023/10/29 07:02:39;;;;;;;4.85;0.47;;;;;;;13.25;81.56;98658.06;10317570;28;20481;-67
2023/10/29 07:07:41;;;;;;;2.97;1.30;;;;;;;13.31;81.77;98640.13;10315881;28;20942;-66
2023/10/29 07:12:42;;;;;;;1.77;0.70;;;;;;;13.39;81.69;98646.00;10317810;28;20061;-67
2023/10/29 07:17:44;;;;;;;2.20;0.80;;;;;;;13.44;81.43;98661.50;10315700;28;20046;-68
2023/10/29 07:22:45;;;;;;;2.78;0.35;;;;;;;13.47;81.60;98647.53;10315652;28;20042;-68
2023/10/29 07:27:47;;;;;;;2.22;1.00;;;;;;;13.52;81.59;98658.41;10315956;28;20046;-68
2023/10/29 07:32:48;;;;;;;0.68;0.47;;;;;;;13.59;81.56;98669.13;10314821;28;20050;-68
2023/10/29 07:37:50;;;;;;;0.77;0.40;;;;;;;13.64;81.47;98674.59;10329593;28;20065;-66
2023/10/29 07:42:51;;;;;;;1.95;0.55;;;;;;;13.67;81.47;98645.25;10317592;28;20046;-67
2023/10/29 07:47:52;;;;;;;3.05;0.60;;;;;;;13.79;81.45;98679.53;10314783;28;20042;-68
2023/10/29 07:52:55;;;;;;;2.63;0.88;;;;;;;13.81;81.60;98678.22;10314347;28;20442;-67
2023/10/29 07:57:56;;;;;;;3.80;0.60;;;;;;;13.84;81.66;98680.44;10314426;28;20405;-68
2023/10/29 08:02:58;;;;;;;1.38;0.70;;;;;;;14.01;81.26;98675.09;10313641;28;20050;-68
2023/10/29 08:08:01;;;;;;;4.28;0.73;;;;;;;14.20;80.77;98661.44;10313477;28;20038;-68
2023/10/29 08:13:03;;;;;;;2.35;0.45;;;;;;;14.23;80.89;98618.50;10315767;28;20050;-68
2023/10/29 08:18:05;;;;;;;1.88;0.50;;;;;;;14.37;80.89;98601.97;10312667;28;20509;-68
2023/10/29 08:23:07;;;;;;;1.75;0.43;;;;;;;14.34;80.80;98651.94;10315869;28;20069;-68
2023/10/29 08:28:09;;;;;;;1.55;1.00;;;;;;;14.40;80.67;98664.50;10315281;28;20065;-68
2023/10/29 08:33:10;;;;;;;2.55;0.52;;;;;;;14.40;81.10;98678.00;10313231;28;20058;-69
2023/10/29 08:38:12;;;;;;;0.70;0.40;;;;;;;14.50;80.92;98671.97;10314303;28;20096;-69
2023/10/29 08:43:13;;;;;;;1.75;0.40;;;;;;;14.62;80.88;98701.69;10313849;28;20050;-68
2023/10/29 08:48:15;;;;;;;2.80;0.70;;;;;;;14.70;80.75;98703.19;10311498;28;20038;-69
2023/10/29 08:53:16;;;;;;;1.55;0.38;;;;;;;14.77;80.58;98701.97;10315172;28;20050;-69
2023/10/29 08:58:20;;;;;;;0.88;0.45;;;;;;;14.84;80.56;98718.84;10312069;28;20046;-67
2023/10/29 09:03:22;;;;;;;2.53;0.40;;;;;;;14.87;80.51;98744.59;10327826;28;20042;-67
2023/10/29 09:08:23;;;;;;;3.47;0.80;;;;;;;14.93;80.38;98777.97;10311711;28;20050;-66
2023/10/29 09:13:26;;;;;;;3.47;0.82;;;;;;;14.99;80.38;98768.91;10314657;28;20046;-67
2023/10/29 09:18:28;;;;;;;3.72;0.43;;;;;;;15.02;80.03;98769.19;10313982;28;20045;-67
2023/10/29 09:23:30;;;;;;;1.75;0.50;;;;;;;15.10;80.15;98770.69;10312542;28;20046;-68
2023/10/29 09:28:32;;;;;;;1.27;0.63;;;;;;;15.15;80.09;98742.91;10314931;28;20053;-66
2023/10/29 09:33:33;;;;;;;0.93;0.60;;;;;;;15.22;79.95;98738.94;10313903;28;20050;-67
2023/10/29 09:38:34;;;;;;;3.08;0.32;;;;;;;15.26;79.79;98734.72;10313483;28;20038;-65
2023/10/29 09:43:43;;;;;;;1.98;0.57;;;;;;;15.38;79.91;98731.91;10320973;28;20050;-67
2023/10/29 09:48:45;;;;;;;0.88;0.45;;;;;;;15.44;79.38;98738.19;10319924;28;20057;-66
2023/10/29 09:53:49;;;;;;;3.00;0.80;;;;;;;15.49;79.37;98718.53;10317495;28;20038;-66
2023/10/29 09:58:50;;;;;;;2.60;0.60;;;;;;;15.55;79.51;98725.66;10293623;28;20629;-66
2023/10/29 10:03:52;;;;;;;1.17;0.40;;;;;;;15.60;79.04;98750.94;10316681;28;20046;-66
2023/10/29 10:08:57;;;;;;;2.22;0.60;;;;;;;15.71;79.10;98761.91;10318520;28;20116;-65
2023/10/29 10:13:59;;;;;;;0.50;0.50;;;;;;;15.80;78.56;98758.56;10317080;28;20050;-65
2023/10/29 10:19:01;;;;;;;1.73;0.60;;;;;;;15.76;79.06;98738.44;10318541;28;20046;-65
2023/10/29 10:24:02;;;;;;;1.50;0.65;;;;;;;15.95;78.80;98752.50;10319441;28;20485;-66
2023/10/29 10:29:08;;;;;;;1.58;0.40;;;;;;;16.15;78.33;98748.44;10319689;28;20074;-67
2023/10/29 10:34:11;;;;;;;2.35;0.65;;;;;;;16.39;78.15;98735.41;10319428;28;20062;-66
2023/10/29 10:39:13;;;;;;;1.77;0.43;;;;;;;16.50;77.80;98734.47;10318245;28;20068;-67
2023/10/29 10:44:19;;;;;;;1.48;0.60;;;;;;;16.64;77.63;98737.59;10319192;28;20069;-66
2023/10/29 10:49:21;;;;;;;1.73;0.52;;;;;;;16.58;77.53;98734.00;10314802;28;20057;-67
2023/10/29 10:54:23;;;;;;;2.85;0.60;;;;;;;16.50;77.32;98742.59;10318609;28;20076;-66
2023/10/29 10:59:24;;;;;;;2.88;0.30;;;;;;;16.44;77.03;98730.06;10315724;28;20050;-67
2023/10/29 11:04:27;;;;;;;3.15;0.57;;;;;;;16.25;77.15;98716.84;10318921;28;20047;-67
2023/10/29 11:09:29;;;;;;;1.75;0.60;;;;;;;15.97;77.39;98741.41;10319855;28;20053;-68
2023/10/29 11:14:31;;;;;;;1.17;0.60;;;;;;;15.75;77.89;98747.63;10316836;28;20038;-67
2023/10/29 11:19:35;;;;;;;1.25;0.30;;;;;;;15.73;77.87;98713.75;10316666;28;20046;-66
2023/10/29 11:24:37;;;;;;;1.25;0.30;;;;;;;15.52;78.70;98726.13;10311060;28;20050;-67
2023/10/29 11:29:41;;;;;;;1.92;0.50;;;;;;;15.33;78.92;98721.00;10319748;28;20046;-67
2023/10/29 11:34:43;;;;;;;3.28;0.80;;;;;;;15.36;78.80;98750.25;10331895;28;20050;-68
2023/10/29 11:39:45;;;;;;;1.30;0.50;;;;;;;15.37;78.81;98737.56;10346622;28;20062;-68
2023/10/29 11:44:46;;;;;;;0.60;0.28;;;;;;;15.46;78.65;98733.34;10359675;28;20148;-68
2023/10/29 11:49:50;;;;;;;3.42;0.40;;;;;;;15.39;79.02;98743.56;10347805;28;20038;-70
2023/10/29 11:55:00;;;;;;;2.55;0.40;;;;;;;15.39;79.03;98762.50;10345560;28;20038;-68
2023/10/29 12:00:03;;;;;;;2.85;1.33;;;;;;;15.41;79.13;98763.09;10360339;28;20058;-67
2023/10/29 12:05:09;;;;;;;5.57;0.82;;;;;;;15.21;79.88;98747.34;10334071;28;20129;-66
2023/10/29 12:10:10;;;;;;;2.75;0.45;;;;;;;15.02;80.24;98722.38;10316581;28;20631;-64
2023/10/29 12:15:13;;;;;;;1.30;0.43;;;;;;;15.03;80.45;98716.72;10329519;28;20057;-65
2023/10/29 12:20:26;;;;;;;2.42;1.13;;;;;;;14.91;80.76;98707.88;10288645;28;20141;-66
2023/10/29 12:25:27;;;;;;;2.08;0.47;;;;;;;14.83;81.12;98714.50;10262754;28;20050;-66
2023/10/29 12:30:49;;;;;;;1.23;0.50;;;;;;;14.91;80.53;98704.34;10317626;28;20776;-66
2023/10/29 12:35:52;;;;;;;0.95;0.40;;;;;;;14.80;81.02;98719.59;10313049;28;20104;-67
2023/10/29 12:41:30;;;;;;;1.42;0.40;;;;;;;14.71;81.18;98719.16;10330614;28;20046;-65
2023/10/29 12:46:32;;;;;;;3.45;0.30;;;;;;;14.59;81.11;98726.50;10266369;28;20854;-66
2023/10/29 12:51:38;;;;;;;2.78;0.40;;;;;;;14.53;81.43;98722.84;10305544;28;20129;-65
2023/10/29 12:57:11;;;;;;;7.20;0.70;;;;;;;14.53;81.50;98714.72;10312319;28;20514;-65
2023/10/29 13:02:21;;;;;;;1.63;0.30;;;;;;;14.39;81.62;98711.50;10326020;28;20054;-64
2023/10/29 13:07:23;;;;;;;2.10;0.30;;;;;;;14.40;81.72;98706.94;10313172;28;20058;-65
2023/10/29 13:12:24;;;;;;;0.95;0.40;;;;;;;14.41;81.83;98709.38;10316316;28;20391;-64
2023/10/29 13:17:26;;;;;;;0.95;0.30;;;;;;;14.45;81.51;98690.78;10322608;28;20157;-63
2023/10/29 13:22:27;;;;;;;0.80;0.38;;;;;;;14.44;81.85;98678.34;10337113;28;20528;-65
2023/10/29 13:27:30;;;;;;;1.80;0.40;;;;;;;14.33;82.25;98704.34;10336693;28;20038;-66
2023/10/29 13:32:31;;;;;;;3.42;0.40;;;;;;;14.34;81.83;98700.59;10320125;28;20054;-64
2023/10/29 13:37:33;;;;;;;0.52;0.20;;;;;;;14.34;81.92;98697.91;10335704;28;20050;-64
2023/10/29 13:42:34;;;;;;;1.05;0.50;;;;;;;14.30;81.96;98677.81;10324150;28;20390;-63
2023/10/29 13:47:36;;;;;;;0.82;0.30;;;;;;;14.32;81.91;98691.09;10320928;28;20046;-63
2023/10/29 13:52:37;;;;;;;2.45;0.50;;;;;;;14.36;81.92;98692.25;10325214;28;20552;-64
2023/10/29 13:57:39;;;;;;;2.38;0.50;;;;;;;14.30;82.23;98685.94;10319782;28;20048;-63
2023/10/29 14:02:40;;;;;;;0.80;0.50;;;;;;;14.29;82.08;98676.19;10308533;28;20057;-64
2023/10/29 14:07:42;;;;;;;1.00;0.55;;;;;;;14.36;82.06;98681.44;10317673;28;20050;-65
2023/10/29 14:12:45;;;;;;;1.52;0.63;;;;;;;14.42;81.98;98681.28;10319951;28;20046;-66
2023/10/29 14:17:47;;;;;;;1.55;0.50;;;;;;;14.39;82.03;98691.75;10317488;28;20053;-64
2023/10/29 14:22:49;;;;;;;1.15;0.60;;;;;;;14.31;82.32;98676.75;10320000;28;20673;-65
2023/10/29 14:27:50;;;;;;;0.90;0.40;;;;;;;14.34;82.23;98670.88;10318409;28;20042;-63
2023/10/29 14:32:51;;;;;;;3.90;0.50;;;;;;;14.42;81.92;98648.84;10305812;28;20050;-64
2023/10/29 14:37:53;;;;;;;2.05;0.50;;;;;;;14.53;81.68;98673.38;10318942;28;20047;-64
2023/10/29 14:42:55;;;;;;;2.50;0.60;;;;;;;14.52;81.99;98647.41;10320253;28;20046;-64
2023/10/29 14:48:17;;;;;;;3.95;1.05;;;;;;;14.63;81.61;98660.88;10316071;28;20054;-65
2023/10/29 14:53:18;;;;;;;2.72;0.50;;;;;;;14.57;81.87;98655.63;10316844;28;20051;-65
2023/10/29 14:58:20;;;;;;;0.52;0.40;;;;;;;14.56;81.79;98656.66;10311078;28;20046;-64
2023/10/29 15:03:21;;;;;;;0.90;0.40;;;;;;;14.53;82.09;98667.94;10312298;28;20046;-65
2023/10/29 15:08:24;;;;;;;0.88;0.52;;;;;;;14.55;81.86;98663.94;10290589;28;20073;-64
2023/10/29 15:13:25;;;;;;;1.85;0.90;;;;;;;14.49;81.83;98656.81;10286744;28;20050;-63
2023/10/29 15:18:27;;;;;;;2.45;0.60;;;;;;;14.47;81.78;98677.84;10329422;28;20477;-63
2023/10/29 15:23:29;;;;;;;1.95;0.50;;;;;;;14.39;82.23;98676.34;10276011;28;20058;-64
2023/10/29 15:28:31;;;;;;;2.72;1.00;;;;;;;14.38;82.44;98722.56;10314957;28;20053;-65
2023/10/29 15:33:32;;;;;;;1.95;0.65;;;;;;;14.40;82.27;98713.16;10299774;28;20065;-64
2023/10/29 15:38:35;;;;;;;3.15;0.55;;;;;;;14.40;82.23;98715.84;10312975;28;20050;-65
2023/10/29 15:43:36;;;;;;;2.00;1.10;;;;;;;14.31;82.66;98738.91;10315055;28;20046;-63
2023/10/29 15:48:38;;;;;;;2.15;0.88;;;;;;;14.21;82.76;98763.03;10316579;28;20061;-64
2023/10/29 15:53:39;;;;;;;1.77;0.60;;;;;;;14.22;82.83;98780.91;10315415;28;20133;-65
2023/10/29 15:58:41;;;;;;;1.52;0.73;;;;;;;14.25;82.76;98786.66;10314282;28;20042;-65
2023/10/29 16:03:44;;;;;;;2.38;0.90;;;;;;;14.32;82.67;98724.34;10315700;28;20053;-65
2023/10/29 16:08:45;;;;;;;1.55;0.70;;;;;;;14.35;82.54;98731.97;10329541;28;20081;-65
2023/10/29 16:13:46;;;;;;;2.05;1.15;;;;;;;14.27;82.67;98741.28;10314315;28;20057;-71
2023/10/29 16:18:48;;;;;;;1.95;0.45;;;;;;;14.23;82.87;98756.34;10314020;28;20050;-71
2023/10/29 16:23:49;;;;;;;1.33;0.60;;;;;;;14.19;82.87;98767.88;10311612;28;20049;-70
2023/10/29 16:28:51;;;;;;;1.00;0.50;;;;;;;14.22;83.09;98768.22;10308421;28;20694;-72
2023/10/29 16:33:52;;;;;;;1.10;0.40;;;;;;;14.18;83.43;98782.44;10316344;28;20493;-71
2023/10/29 16:38:55;;;;;;;0.60;0.38;;;;;;;14.19;83.10;98786.78;10328832;28;20125;-71
2023/10/29 16:43:58;;;;;;;0.50;0.38;;;;;;;14.17;83.02;98794.31;10345739;28;20046;-69
2023/10/29 16:49:01;;;;;;;1.30;0.70;;;;;;;14.17;83.15;98788.91;10319829;28;20072;-71
2023/10/29 16:54:04;;;;;;;0.82;0.52;;;;;;;14.15;83.45;98791.84;10323252;28;20046;-70
2023/10/29 16:59:05;;;;;;;3.67;0.40;;;;;;;14.16;83.01;98808.88;10311747;28;20446;-72
2023/10/29 17:04:07;;;;;;;0.70;0.52;;;;;;;14.15;83.16;98802.66;10312079;28;20437;-70
2023/10/29 17:09:09;;;;;;;1.90;0.50;;;;;;;14.17;82.95;98789.72;10322463;28;20050;-70
2023/10/29 17:14:14;;;;;;;1.40;0.60;;;;;;;14.11;82.78;98777.16;10287019;28;20054;-71
2023/10/29 17:19:15;;;;;;;0.80;0.60;;;;;;;14.15;82.88;98762.13;10305209;28;20038;-72
2023/10/29 17:24:17;;;;;;;1.42;0.40;;;;;;;14.14;83.01;98729.91;10312172;28;20153;-70
2023/10/29 17:29:18;;;;;;;1.67;0.90;;;;;;;14.16;82.65;98776.44;10310791;28;20062;-70
2023/10/29 17:34:20;;;;;;;2.08;0.75;;;;;;;14.16;82.68;98776.44;10311692;28;20498;-69
2023/10/29 17:39:24;;;;;;;1.45;0.40;;;;;;;14.03;82.89;98770.25;10310623;28;20512;-71
2023/10/29 17:44:27;;;;;;;2.25;0.82;;;;;;;14.06;82.56;98791.41;10302256;28;20073;-70
2023/10/29 17:49:29;;;;;;;4.80;1.40;;;;;;;13.99;82.74;98811.50;10302760;28;20038;-69
2023/10/29 17:54:31;;;;;;;4.18;0.50;;;;;;;14.00;82.60;98823.94;10324614;28;20046;-68
2023/10/29 17:59:33;;;;;;;1.15;0.50;;;;;;;13.99;82.53;98839.31;10324259;28;20045;-69
2023/10/29 18:04:35;;;;;;;4.43;0.50;;;;;;;13.96;82.48;98837.09;10272438;28;20118;-69
2023/10/29 18:09:36;;;;;;;1.00;0.40;;;;;;;13.92;82.71;98833.22;10313636;28;20399;-70
2023/10/29 18:14:37;;;;;;;0.90;0.40;;;;;;;13.99;82.30;98852.84;10302850;28;20049;-69
2023/10/29 18:19:39;;;;;;;0.63;0.40;;;;;;;13.91;82.42;98850.47;10286836;28;20046;-69
2023/10/29 18:24:40;;;;;;;0.70;0.40;;;;;;;13.94;82.02;98852.72;10315893;28;20068;-70
2023/10/29 18:29:42;;;;;;;1.83;0.57;;;;;;;13.98;82.08;98874.66;10318190;28;20046;-69
2023/10/29 18:34:43;;;;;;;3.20;0.40;;;;;;;13.95;81.69;98881.38;10313145;28;20042;-70
2023/10/29 18:39:45;;;;;;;3.90;0.30;;;;;;;13.95;81.45;98878.69;10308431;28;20064;-68
2023/10/29 18:44:47;;;;;;;2.65;0.45;;;;;;;13.94;81.46;98884.31;10310286;28;20045;-69
2023/10/29 18:49:48;;;;;;;2.33;0.50;;;;;;;13.90;81.12;98883.94;10295710;28;20050;-70
2023/10/29 18:54:50;;;;;;;1.30;0.40;;;;;;;13.84;81.55;98891.13;10307243;28;20049;-71
2023/10/29 18:59:51;;;;;;;2.20;0.30;;;;;;;13.87;81.40;98897.94;10279453;28;20070;-70
2023/10/29 19:04:53;;;;;;;1.27;0.50;;;;;;;13.88;81.54;98902.25;10313512;28;20116;-68
2023/10/29 19:09:55;;;;;;;2.85;0.50;;;;;;;13.96;81.13;98904.66;10311153;28;20510;-69
2023/10/29 19:14:56;;;;;;;5.00;0.30;;;;;;;14.00;81.28;98921.19;10314807;28;20050;-69
2023/10/29 19:19:58;;;;;;;1.65;0.38;;;;;;;14.05;81.29;98930.25;10314987;28;20038;-68
2023/10/29 19:24:59;;;;;;;1.85;0.40;;;;;;;14.06;81.42;98931.91;10317063;28;20038;-69
2023/10/29 19:30:01;;;;;;;0.73;0.32;;;;;;;14.06;81.51;98937.31;10290044;28;20109;-68
2023/10/29 19:35:03;;;;;;;1.00;0.30;;;;;;;14.10;81.29;98948.47;10313751;28;20051;-68
2023/10/29 19:40:05;;;;;;;1.05;0.20;;;;;;;14.07;81.27;98949.75;10327872;28;20447;-68
2023/10/29 19:45:07;;;;;;;1.45;0.30;;;;;;;14.02;81.26;98943.38;10322260;28;20038;-68
2023/10/29 19:50:09;;;;;;;1.65;0.28;;;;;;;13.98;81.00;98953.03;10273397;28;20057;-68
2023/10/29 19:55:13;;;;;;;0.30;0.20;;;;;;;13.98;80.68;98951.16;10313209;28;20072;-67
2023/10/29 20:00:19;;;;;;;3.78;0.40;;;;;;;13.88;80.96;98945.47;10301484;28;20073;-68
2023/10/29 20:05:21;;;;;;;0.35;0.17;;;;;;;13.85;80.77;98957.59;10312779;28;20053;-67
2023/10/29 20:10:22;;;;;;;0.90;0.20;;;;;;;13.88;80.57;98984.16;10285735;28;20069;-69
2023/10/29 20:15:24;;;;;;;2.63;0.57;;;;;;;13.87;80.73;98993.28;10270780;28;20153;-68
2023/10/29 20:20:26;;;;;;;2.95;0.20;;;;;;;13.97;80.52;98978.41;10273746;28;20050;-67
2023/10/29 20:25:28;;;;;;;0.65;0.30;;;;;;;13.98;80.46;98994.41;10273208;28;20051;-68
2023/10/29 20:30:29;;;;;;;2.35;0.20;;;;;;;13.96;80.84;98995.66;10288041;28;20039;-67
2023/10/29 20:35:32;;;;;;;1.52;0.20;;;;;;;14.00;80.64;99018.44;10306714;28;20038;-68
2023/10/29 20:40:34;;;;;;;1.13;0.20;;;;;;;14.03;80.69;99040.44;10310431;28;20133;-67
2023/10/29 20:45:35;;;;;;;3.83;0.30;;;;;;;14.05;80.51;99046.44;10312271;28;20060;-67
2023/10/29 20:50:38;;;;;;;1.02;0.40;;;;;;;14.08;80.70;99048.69;10297843;28;20046;-66
2023/10/29 20:55:39;;;;;;;4.95;0.40;;;;;;;14.15;80.51;99040.47;10311974;28;20049;-67
2023/10/29 21:00:45;;;;;;;2.00;0.30;;;;;;;14.17;80.45;99037.53;10313593;28;20038;-67
2023/10/29 21:05:55;;;;;;;2.75;0.40;;;;;;;14.15;80.43;99051.28;10309652;28;20523;-67
2023/10/29 21:11:03;;;;;;;1.08;0.40;;;;;;;14.22;80.36;99045.78;10308983;28;20046;-66
2023/10/29 21:16:05;;;;;;;1.00;0.35;;;;;;;14.23;80.29;99039.31;10311439;28;20054;-67
2023/10/29 21:21:08;;;;;;;1.45;0.40;;;;;;;14.24;80.13;99062.59;10312294;28;20411;-66
2023/10/29 21:26:09;;;;;;;2.88;0.70;;;;;;;14.24;80.26;99052.59;10306106;28;20501;-66
2023/10/29 21:31:12;;;;;;;2.20;0.35;;;;;;;14.29;80.11;99071.63;10321962;28;20049;-67
2023/10/29 21:36:14;;;;;;;2.33;0.90;;;;;;;14.25;80.04;99069.63;10288610;28;20129;-67
2023/10/29 21:41:16;;;;;;;4.28;0.50;;;;;;;14.27;80.27;99091.84;10318431;28;20054;-67
2023/10/29 21:46:17;;;;;;;2.90;0.35;;;;;;;14.31;80.08;99093.03;10334596;28;20073;-67
2023/10/29 21:51:19;;;;;;;0.73;0.35;;;;;;;14.30;79.83;99094.09;10320199;28;20093;-67
2023/10/29 21:56:20;;;;;;;2.30;0.50;;;;;;;14.32;80.06;99083.06;10319185;28;20493;-67
2023/10/29 22:01:22;;;;;;;3.80;0.38;;;;;;;14.35;79.55;99080.69;10319700;28;20054;-67
2023/10/29 22:06:24;;;;;;;1.25;0.30;;;;;;;14.34;79.58;99089.88;10318457;28;20097;-67
2023/10/29 22:11:25;;;;;;;3.22;0.40;;;;;;;14.23;79.78;99096.88;10319704;28;20042;-67
2023/10/29 22:16:27;;;;;;;1.38;0.40;;;;;;;14.22;79.55;99097.97;10318294;28;20042;-67
2023/10/29 22:21:28;;;;;;;2.05;0.50;;;;;;;14.21;79.53;99101.69;10319470;28;20350;-67
2023/10/29 22:26:31;;;;;;;4.82;0.38;;;;;;;14.23;79.23;99091.47;10318007;28;20074;-68
2023/10/29 22:31:32;;;;;;;1.48;0.30;;;;;;;14.24;79.05;99089.63;10319473;28;20034;-68
2023/10/29 22:36:34;;;;;;;4.53;0.40;;;;;;;14.30;79.04;99094.09;10319106;28;20400;-68
2023/10/29 22:41:36;;;;;;;2.50;0.65;;;;;;;14.29;79.14;99092.44;10317521;28;20493;-68
2023/10/29 22:46:37;;;;;;;1.05;0.30;;;;;;;14.23;78.92;99087.97;10317692;28;20046;-67
2023/10/29 22:51:39;;;;;;;2.85;0.63;;;;;;;14.16;78.84;99104.28;10320045;28;20168;-67
2023/10/29 22:56:40;;;;;;;2.38;0.30;;;;;;;14.11;78.89;99097.91;10314049;28;20406;-68
2023/10/29 23:01:42;;;;;;;2.20;0.30;;;;;;;14.08;78.60;99107.31;10315285;28;20050;-67
2023/10/29 23:06:44;;;;;;;2.75;0.30;;;;;;;14.06;78.78;99131.03;10314240;28;20042;-68
2023/10/29 23:11:45;;;;;;;3.60;0.32;;;;;;;14.01;78.82;99144.41;10333865;28;20055;-68
2023/10/29 23:16:47;;;;;;;3.83;0.30;;;;;;;13.97;78.89;99143.22;10320481;28;20508;-68
2023/10/29 23:21:48;;;;;;;1.80;0.50;;;;;;;13.91;79.24;99163.84;10320930;28;20050;-68
2023/10/29 23:26:50;;;;;;;4.55;0.60;;;;;;;13.94;79.04;99162.56;10317117;28;20058;-68